Terminal Aerodrome Forecast
Issued by NWS

Home | Current Version | Previous Version | Text Only | Print | Product List | Glossary On
Versions: 1 2 3 4 5 6 7 8 9 10 11 12 13 14 15 16 17 18 19
990
FTUS43 KMPX 280602 AAA
TAFRNH
TAF AMD
KRNH 280602Z 2806/2906 VRB02KT P6SM SCT200
      TEMPO 2806/2808 3SM BR
     FM280800 00000KT 3SM BR FEW250
      TEMPO 2809/2813 1SM BR SCT001
     FM281400 07005KT P6SM FEW200=

USA.gov is the U.S. government's official web portal to all federal, state and local government web resources and services.